• Join FlightAware (Why Join?)
  • Login
  • US Flag 
10:53AM EDT


 

Airport Tracker/Info


-or-


 

Live Flight TrackerFlight Track Log ✈ N577XW ✈ 23-Apr-2013 ✈ KHVN - KTUL

Flight Track Log - Related Links

Times and Time Zones

All times are in EDT time to prevent confusion due to time zone crossing. See the N577XW flight status page for this flight to view local times or setup timezone preferences in your user account.

Time Position Orientation Groundspeed Altitude Reporting Facility
EDT Latitude Longitude Course Direction KTS MPH feet Rate Location/Type
11:58AM 41.3000 -73.0000 283° West 272 313 3,400  Level New York TRACON
11:59AM 41.3167 -73.1000 283° West 274 315 5,900 1,260 Climbing New York TRACON
12:00PM 41.3167 -73.2000 270° West 282 325 6,000  Climbing New York TRACON
12:01PM 41.3000 -73.3167 259° West 281 323 6,000  Level New York TRACON
12:02PM 41.3000 -73.4000 270° West 272 313 6,000 120 Level New York TRACON
12:03PM 41.2833 -73.5000 258° West 271 312 6,300 480 Climbing New York TRACON
12:04PM 41.2500 -73.6000 246° West 276 318 7,000 300 Climbing New York TRACON
12:05PM 41.2333 -73.7000 258° West 281 323 7,000  Level New York TRACON
12:06PM 41.2000 -73.7833 242° Southwest 279 321 7,000 660 Level New York TRACON
12:07PM 41.1500 -73.8667 231° Southwest 275 316 8,400 1,680 Climbing New York TRACON
12:08PM 41.0833 -73.9333 217° Southwest 284 327 10,500 1,260 Climbing New York TRACON
12:09PM 41.0333 -74.0167 232° Southwest 309 356 11,000 780 Climbing New York TRACON
12:10PM 40.9833 -74.1167 237° Southwest 307 353 12,100 1,620 Climbing New York TRACON
12:12PM 40.9342 -74.3611 254° West 317 365 16,400 1,620 Climbing New York Center
12:13PM 40.9328 -74.4764 269° West 322 371 17,500 1,140 Climbing New York Center
12:14PM 40.9297 -74.5667 267° West 322 371 18,800 1,620 Climbing New York Center
12:15PM 40.9114 -74.6864 259° West 316 364 20,900 1,620 Climbing New York Center
12:16PM 40.8931 -74.7981 258° West 311 358 22,100 1,260 Climbing New York Center
12:17PM 40.8764 -74.9150 259° West 316 364 23,400 1,260 Climbing New York Center
12:18PM 40.8575 -75.0344 258° West 326 375 24,700 1,260 Climbing New York Center
12:19PM 40.8406 -75.1542 259° West 332 382 25,900 1,260 Climbing New York Center
12:20PM 40.8217 -75.2736 258° West 332 382 27,300 1,320 Climbing New York Center
12:21PM 40.7881 -75.3839 248° West 332 382 28,600 1,200 Climbing New York Center
12:22PM 40.7483 -75.4989 246° West 326 375 29,800 1,140 Climbing New York Center
12:23PM 40.7217 -75.5903 249° West 321 369 30,900 1,200 Climbing New York Center
12:24PM 40.6842 -75.6917 244° Southwest 311 358 32,200 1,080 Climbing New York Center
12:25PM 40.6411 -75.7706 234° Southwest 295 339 33,100 840 Climbing New York Center
12:26PM 40.6003 -75.8961 247° West 306 352 33,900 720 Climbing New York Center
12:27PM 40.5664 -76.0056 248° West 323 372 34,600 840 Climbing New York Center
12:28PM 40.5364 -76.1181 251° West 330 380 35,600 660 Climbing New York Center
12:29PM 40.5022 -76.2272 248° West 324 373 36,000 180 Climbing New York Center
12:30PM 40.4678 -76.3417 248° West 331 381 36,000  Level New York Center
12:31PM 40.4325 -76.4672 250° West 350 403 36,000  Level New York Center
12:32PM 40.3931 -76.5919 247° West 361 415 36,000  Level New York Center
12:33PM 40.3558 -76.7142 248° West 366 421 36,000  Level New York Center
12:34PM 40.3181 -76.8389 248° West 366 421 36,000  Level New York Center
12:35PM 40.2781 -76.9661 248° West 366 421 36,000  Level New York Center
12:36PM 40.2400 -77.0933 249° West 378 435 36,000 420 Level New York Center
12:37PM 40.2000 -77.2175 247° West 383 441 36,900 960 Climbing New York Center
12:38PM 40.1664 -77.3367 250° West 378 435 37,900 540 Climbing New York Center
12:39PM 40.1283 -77.4553 247° West 364 419 38,000  Climbing New York Center
12:41PM 40.0556 -77.6917 248° West 359 413 38,000  Level Cleveland Center
12:42PM 40.0169 -77.8206 249° West 371 427 38,000  Level Cleveland Center
12:43PM 39.9803 -77.9469 249° West 376 433 38,000  Level Cleveland Center
12:44PM 39.9772 -78.0850 268° West 376 433 38,000  Level Cleveland Center
12:45PM 39.9822 -78.2231 273° West 376 433 38,000  Level Cleveland Center
12:46PM 39.9561 -78.3731 257° West 387 445 38,000  Level Cleveland Center
12:47PM 39.9253 -78.5039 253° West 387 445 38,000  Level Cleveland Center
12:48PM 39.9025 -78.6372 257° West 387 445 38,000  Level Cleveland Center
12:49PM 39.8756 -78.7681 255° West 376 433 38,000  Level Cleveland Center
12:50PM 39.8506 -78.9011 256° West 376 433 38,000  Level Cleveland Center
12:51PM 39.8314 -79.0206 258° West 381 438 38,000  Level Cleveland Center
12:52PM 39.8042 -79.1672 256° West 376 433 38,000  Level Cleveland Center
12:53PM 39.7764 -79.3028 255° West 376 433 38,000  Level Cleveland Center
12:54PM 39.7508 -79.4356 256° West 376 433 38,000  Level Cleveland Center
12:55PM 39.7250 -79.5683 256° West 376 433 38,000  Level Cleveland Center
12:56PM 39.6969 -79.7008 255° West 376 433 38,000  Level Cleveland Center
12:57PM 39.6728 -79.8306 256° West 376 433 38,000  Level Cleveland Center
12:58PM 39.6464 -79.9656 256° West 376 433 38,000  Level Cleveland Center
12:59PM 39.6181 -80.0953 254° West 376 433 38,000  Level Cleveland Center
01:00PM 39.5892 -80.2275 254° West 376 433 38,000  Level Cleveland Center
01:02PM 39.5339 -80.4886 255° West 378 435 38,000  Level Indianapolis Center
01:03PM 39.5064 -80.6194 255° West 378 435 38,000  Level Indianapolis Center
01:04PM 39.4797 -80.7503 255° West 377 434 38,000  Level Indianapolis Center
01:05PM 39.4517 -80.8806 254° West 377 434 38,000  Level Indianapolis Center
01:06PM 39.4236 -81.0111 254° West 378 435 38,000  Level Indianapolis Center
01:08PM 39.3953 -81.1411 254° West 378 435 38,000  Level Indianapolis Center
01:09PM 39.3628 -81.2944 255° West 371 427 38,000  Level Indianapolis Center
01:10PM 39.3353 -81.4244 255° West 375 432 38,000  Level Indianapolis Center
01:11PM 39.3072 -81.5503 254° West 369 425 38,000  Level Indianapolis Center
01:12PM 39.2794 -81.6764 254° West 368 423 38,000 360 Level Indianapolis Center
01:13PM 39.2525 -81.7994 254° West 360 414 38,800 720 Climbing Indianapolis Center
01:14PM 39.2275 -81.9156 255° West 342 394 39,500 480 Climbing Indianapolis Center
01:15PM 39.1964 -82.0544 254° West 338 389 39,900 240 Climbing Indianapolis Center
01:16PM 39.1694 -82.1728 254° West 345 397 40,000  Climbing Indianapolis Center
01:17PM 39.1422 -82.2950 254° West 352 405 40,000  Level Indianapolis Center
01:18PM 39.1150 -82.4200 254° West 361 415 40,000  Level Indianapolis Center
01:19PM 39.0858 -82.5469 254° West 369 425 40,000  Level Indianapolis Center
01:20PM 39.0569 -82.6722 253° West 368 423 40,000  Level Indianapolis Center
01:21PM 39.0206 -82.8256 253° West 373 429 40,000  Level Indianapolis Center
01:22PM 38.9917 -82.9531 254° West 373 429 40,000  Level Indianapolis Center
01:23PM 38.9617 -83.0803 253° West 374 430 40,000 -60 Level Indianapolis Center
01:24PM 38.9297 -83.2164 253° West 373 429 39,900 -600 Descending Indianapolis Center
01:25PM 38.8994 -83.3450 253° West 372 428 38,800 -900 Descending Indianapolis Center
01:26PM 38.8700 -83.4669 253° West 359 413 38,100 -420 Descending Indianapolis Center
01:27PM 38.8439 -83.5806 254° West 336 387 38,000 -60 Descending Indianapolis Center
01:28PM 38.8153 -83.6972 253° West 337 388 38,000  Level Indianapolis Center
01:29PM 38.7883 -83.8139 254° West 338 389 38,000  Level Indianapolis Center
01:30PM 38.7589 -83.9289 252° West 337 388 38,000  Level Indianapolis Center
01:31PM 38.7314 -84.0458 253° West 339 390 38,000  Level Indianapolis Center
01:32PM 38.7036 -84.1614 253° West 337 388 38,000  Level Indianapolis Center
01:33PM 38.6742 -84.2775 252° West 338 389 38,000  Level Indianapolis Center
01:34PM 38.6422 -84.4083 253° West 337 388 38,000  Level Indianapolis Center
01:35PM 38.6142 -84.5225 253° West 337 388 38,000  Level Indianapolis Center
01:36PM 38.5861 -84.6364 253° West 337 388 38,000  Level Indianapolis Center
01:37PM 38.5575 -84.7525 253° West 340 391 38,000  Level Indianapolis Center
01:38PM 38.5283 -84.8667 252° West 338 389 38,000  Level Indianapolis Center
01:39PM 38.4939 -84.9992 252° West 338 389 38,000  Level Indianapolis Center
01:40PM 38.4650 -85.1122 252° West 336 387 38,000  Level Indianapolis Center
01:41PM 38.4347 -85.2311 252° West 337 388 38,000  Level Indianapolis Center
01:42PM 38.4056 -85.3464 252° West 340 391 38,000  Level Indianapolis Center
01:44PM 38.3775 -85.4608 253° West 337 388 38,000  Level Indianapolis Center
01:45PM 38.3450 -85.5764 250° West 343 395 38,000  Level Indianapolis Center
01:46PM 38.3164 -85.6900 252° West 338 389 38,000  Level Indianapolis Center
01:47PM 38.2867 -85.8050 252° West 340 391 38,000  Level Indianapolis Center
01:48PM 38.2575 -85.9186 252° West 337 388 38,000 240 Level Indianapolis Center
01:49PM 38.2281 -86.0322 252° West 337 388 38,500 480 Climbing Indianapolis Center
01:50PM 38.1986 -86.1408 251° West 326 375 39,000 480 Climbing Indianapolis Center
01:51PM 38.1708 -86.2489 252° West 322 371 39,600 480 Climbing Indianapolis Center
01:52PM 38.1369 -86.3761 251° West 316 364 40,000 180 Climbing Indianapolis Center
01:53PM 38.1069 -86.4858 251° West 324 373 40,000  Level Indianapolis Center
01:54PM 38.0769 -86.5956 251° West 327 376 40,000  Level Indianapolis Center
01:55PM 38.0467 -86.7075 251° West 331 381 40,000  Level Indianapolis Center
01:56PM 38.0167 -86.8197 251° West 333 383 40,000  Level Indianapolis Center
01:57PM 37.9856 -86.9331 251° West 335 386 40,000  Level Indianapolis Center
01:58PM 37.9553 -87.0469 251° West 337 388 40,000  Level Indianapolis Center
01:59PM 37.9233 -87.1594 250° West 337 388 40,000  Level Indianapolis Center
02:00PM 37.8922 -87.2739 251° West 339 390 40,000  Level Indianapolis Center
02:01PM 37.8603 -87.3867 250° West 338 389 40,000  Level Indianapolis Center
02:02PM 37.8289 -87.5003 251° West 339 390 40,000  Level Indianapolis Center
02:03PM 37.7906 -87.6369 250° West 341 392 40,000  Level Indianapolis Center
02:04PM 37.7631 -87.7347 250° West 337 388 40,000  Level Indianapolis Center
02:05PM 37.7300 -87.8508 250° West 344 396 40,000  Level Indianapolis Center
02:06PM 37.6922 -87.9828 250° West 343 395 40,000  Level Indianapolis Center
02:07PM 37.6603 -88.0964 250° West 342 394 40,000  Level Indianapolis Center
02:08PM 37.6275 -88.2122 250° West 346 398 40,000  Level Indianapolis Center
02:09PM 37.5961 -88.3194 250° West 345 397 40,000  Level Indianapolis Center
02:10PM 37.5708 -88.4233 253° West 351 404 40,000  Level Memphis Center
02:11PM 37.5392 -88.5367 251° West 351 404 40,000  Level Memphis Center
02:12PM 37.5056 -88.6497 249° West 351 404 40,000  Level Memphis Center
02:13PM 37.4717 -88.7631 249° West 351 404 40,000  Level Memphis Center
02:14PM 37.4397 -88.8758 250° West 351 404 40,000  Level Memphis Center
02:15PM 37.4078 -88.9886 250° West 351 404 40,000  Level Memphis Center
02:16PM 37.3694 -89.1147 249° West 351 404 40,000  Level Memphis Center
02:17PM 37.3350 -89.2275 249° West 351 404 40,000  Level Memphis Center
02:18PM 37.3006 -89.3375 249° West 351 404 40,000  Level Memphis Center
02:19PM 37.2661 -89.4525 249° West 351 404 40,000  Level Memphis Center
02:20PM 37.2294 -89.5675 248° West 351 404 40,000  Level Memphis Center
02:21PM 37.2072 -89.6850 257° West 351 404 40,000  Level Memphis Center
02:22PM 37.1911 -89.8047 260° West 346 398 40,000  Level Memphis Center
02:23PM 37.1686 -89.9247 257° West 351 404 40,000  Level Memphis Center
02:24PM 37.1481 -90.0447 258° West 356 410 40,000  Level Memphis Center
02:25PM 37.1275 -90.1644 258° West 356 410 40,000  Level Memphis Center
02:26PM 37.1089 -90.2842 259° West 356 410 40,000  Level Memphis Center
02:27PM 37.0861 -90.4036 257° West 356 410 40,000  Level Memphis Center
02:28PM 37.0653 -90.5233 258° West 356 410 40,000  Level Memphis Center
02:29PM 37.0442 -90.6403 257° West 356 410 40,000  Level Memphis Center
02:30PM 37.0231 -90.7569 257° West 356 410 40,000  Level Memphis Center
02:31PM 37.0017 -90.8764 257° West 356 410 40,000  Level Memphis Center
02:32PM 36.9825 -90.9931 258° West 356 410 40,000  Level Memphis Center
02:33PM 36.9653 -91.0839 257° West 356 410 40,000  Level Memphis Center
02:34PM 36.9436 -91.2083 258° West 356 410 40,000  Level Memphis Center
02:35PM 36.9219 -91.3247 257° West 350 403 40,000  Level Memphis Center
02:36PM 36.9086 -91.3936 256° West 344 396 40,000  Level Kansas City Center
02:37PM 36.8867 -91.5106 257° West 344 396 40,000 -60 Level Kansas City Center
02:38PM 36.8667 -91.6275 258° West 343 395 39,900 -300 Descending Kansas City Center
02:38PM 36.8561 -91.6767 255° West 356 410 39,600 -660 Descending Memphis Center
02:39PM 36.8361 -91.7931 258° West 356 410 39,000 -600 Descending Memphis Center
02:40PM 36.8119 -91.9117 256° West 356 410 38,400 -540 Descending Memphis Center
02:41PM 36.7872 -92.0433 257° West 356 410 38,000 -240 Descending Memphis Center
02:42PM 36.7647 -92.1647 257° West 356 410 38,000  Level Memphis Center
02:43PM 36.7442 -92.2808 258° West 356 410 38,000  Level Memphis Center
02:44PM 36.7214 -92.3992 257° West 356 410 38,000  Level Memphis Center
02:45PM 36.6986 -92.5178 257° West 356 410 38,000  Level Memphis Center
02:46PM 36.6756 -92.6361 256° West 356 410 38,000  Level Memphis Center
02:47PM 36.6525 -92.7544 256° West 356 410 38,000  Level Memphis Center
02:48PM 36.6317 -92.8703 257° West 356 410 38,000 -120 Level Memphis Center
02:49PM 36.6061 -92.9883 255° West 356 410 37,800 -420 Descending Memphis Center
02:50PM 36.5847 -93.1117 258° West 356 410 37,200 -600 Descending Memphis Center
02:51PM 36.5592 -93.2269 255° West 356 410 36,600 -900 Descending Memphis Center
02:52PM 36.5356 -93.3450 256° West 356 410 35,500 -1,140 Descending Memphis Center
02:53PM 36.5144 -93.4500 256° West 356 410 34,400 -1,260 Descending Memphis Center
02:54PM 36.4906 -93.5653 256° West 356 410 33,000 -1,380 Descending Memphis Center
02:55PM 36.4667 -93.6831 256° West 356 410 31,700 -1,320 Descending Memphis Center
02:56PM 36.4447 -93.8008 257° West 356 410 30,400 -1,200 Descending Memphis Center
02:57PM 36.4206 -93.9183 256° West 356 410 29,300 -1,020 Descending Memphis Center
02:58PM 36.3964 -94.0308 255° West 351 404 28,400 -900 Descending Memphis Center
02:59PM 36.3719 -94.1508 256° West 346 398 27,600 -840 Descending Memphis Center
03:00PM 36.3478 -94.2606 255° West 340 391 26,800 -780 Descending Memphis Center
03:01PM 36.3253 -94.3753 256° West 340 391 26,100 -780 Descending Memphis Center
03:02PM 36.3011 -94.4822 254° West 335 386 25,300 -840 Descending Memphis Center
03:03PM 36.2786 -94.5894 255° West 335 386 24,500 -840 Descending Memphis Center
03:04PM 36.2542 -94.6936 254° West 335 386 23,700 -720 Descending Memphis Center
03:04PM 36.2522 -94.7111 262° West 319 367 23,600 -960 Descending Kansas City Center
03:05PM 36.2294 -94.8144 255° West 313 360 22,400 -1,320 Descending Kansas City Center
03:06PM 36.2133 -94.9433 261° West 315 362 20,900 -1,620 Descending Kansas City Center
03:07PM 36.2122 -95.0475 269° West 306 352 19,200 -1,680 Descending Kansas City Center
03:08PM 36.2156 -95.1433 272° West 290 334 17,600 -1,620 Descending Kansas City Center
03:10PM 36.1725 -95.2200 235° Southwest 276 318 15,900 -1,800 Descending Kansas City Center
03:10PM 36.1392 -95.2989 242° Southwest 268 308 14,300 -1,860 Descending Kansas City Center
03:11PM 36.1086 -95.3781 244° Southwest 257 296 12,600 -1,740 Descending Kansas City Center
03:12PM 36.0858 -95.4511 249° West 225 259 10,800 -2,160 Descending Kansas City Center
03:13PM 36.0647 -95.5211 250° West 214 246 8,300 -2,280 Descending Kansas City Center
03:14PM 36.0625 -95.5292 251° West 219 252 8,000 -2,160 Descending Kansas City Center
03:15PM 36.0447 -95.6081 254° West 230 265 5,600 -1,980 Descending Kansas City Center
03:16PM 36.0281 -95.6894 256° West 237 273 4,000 -900 Descending Kansas City Center
03:17PM 36.0119 -95.7594 254° West 227 261 3,800 -720 Descending Kansas City Center
03:18PM 36.0089 -95.8428 267° West 208 239 2,500 -780 Descending Kansas City Center
03:18PM 36.0183 -95.8786 288° West 147 169 2,500  Level Kansas City Center
03:19PM 36.0267 -95.8836 334° Northwest 171 197 2,500  Level Kansas City Center
03:19PM 36.0531 -95.8947 341° North 129 148 2,500  Level Kansas City Center
03:20PM 36.0628 -95.8961 353° North 146 168 2,500 -120 Level Kansas City Center
03:20PM 36.0875 -95.9033 347° North 129 148 2,400 -120 Descending Kansas City Center
03:21PM 36.0981 -95.9050 353° North 137 158 2,400 -840 Level Kansas City Center
03:21PM 36.1169 -95.9044 North 110 127 1,600 -1,140 Descending Kansas City Center
03:22PM 36.1283 -95.9058 354° North 124 143 1,300 -420 Descending Kansas City Center
03:22PM 36.1461 -95.9033 North 100 115 1,200 -120 Descending Kansas City Center
03:23PM 36.1558 -95.9025 North 110 127 1,200 -240 Level Kansas City Center
03:24PM 36.1775 -95.9019 North 116 133 1,000 -420 Descending Kansas City Center
03:24PM 36.1856 -95.9003 North 106 122 800 -480 Descending Kansas City Center